Tuesday, April 24, 2018, 4:17 AM EDT
Back to Local

KMQE, Milton Blue Hill Observ

Location: Milton, MA, United States Lat: 42.217
Local Time: 4:17 AM EDT ( 8:17 GMT) Lon: -71.117
Time Zone: US/Eastern Elev: 629 ft

Show me the last for .
Show Coded

Time T Td Feel RH Dir Speed Gust Alt SLP Vis Weather Sky Remarks
2018-04-24 03:56 41 31 33 67 210° 14 - 30.38 30.42 0 None
2018-04-24 02:56 41 30 33 64 210° 14 - 30.39 30.42 0 None
2018-04-24 01:56 42 28 35 57 200° 15 - 30.39 30.42 0 6-hr Min Temp (2am): 42.1°F
6-hr Max Temp (2am): 50.0°F
2018-04-24 00:56 43 25 34 48 200° 16 22 30.41 30.45 0 24-hr Min Temp (1am): 39.9°F
24-hr Max Temp (1am): 62.1°F
2018-04-23 23:56 45 22 36 39 200° 18 26 30.41 30.45 0 None
2018-04-23 22:56 45 20 38 36 190° 16 - 30.41 30.45 0 None
2018-04-23 21:56 46 19 37 33 190° 16 25 30.43 30.47 0 None
2018-04-23 20:56 48 18 40 29 180° 20 25 30.43 30.47 0 None
2018-04-23 19:56 50 22 43 32 160° 13 25 30.40 30.44 0 6-hr Min Temp (8pm): 50.0°F
6-hr Max Temp (8pm): 62.1°F
2018-04-23 18:56 53 25 - 33 190° 18 25 30.41 30.45 0 None
2018-04-23 17:56 59 20 - 21 140° 13 18 30.39 30.43 0 None
2018-04-23 16:56 61 19 - 19 110° 10 18 30.39 30.43 0 None
2018-04-23 15:56 61 18 - 18 100° 9 - 30.40 30.44 0 None
2018-04-23 14:56 61 19 - 19 70° 12 20 30.41 30.45 0 None
2018-04-23 13:56 61 18 - 18 40° 9 - 30.43 30.47 0 6-hr Min Temp (2pm): 48.0°F
6-hr Max Temp (2pm): 62.1°F
2018-04-23 12:56 61 16 - 17 300° 7 - 30.44 30.48 0 None
2018-04-23 11:56 59 15 - 17 Variable 7 - 30.46 30.50 0 None
2018-04-23 10:56 55 15 - 20 10° 6 - 30.48 30.51 0 None
2018-04-23 09:56 52 18 - 25 Variable 3 - 30.48 30.52 0 None
2018-04-23 08:56 51 18 - 26 - Calm - 30.48 30.51 0 None
2018-04-23 07:56 48 19 46 31 30° 5 - 30.47 30.50 0 6-hr Min Temp (8am): 39.9°F
6-hr Max Temp (8am): 48.0°F
2018-04-23 06:56 41 18 36 38 350° 7 - 30.45 30.49 0 None
2018-04-23 05:56 41 17 36 37 340° 8 - 30.43 30.47 0 None
2018-04-23 04:56 41 17 36 37 340° 8 - 30.41 30.45 0 None

Support USWX by starting your Amazon purchase here.